createdAt,value
2023-01-04T09:55:50.479Z,13.25
2023-01-04T09:58:36.065Z,14.02
2023-01-04T10:01:07.156Z,14.34
2023-01-04T10:03:39.784Z,15.22
2023-01-04T10:06:10.412Z,15.19
2023-01-04T10:08:37.125Z,15.50
2023-01-04T10:11:09.628Z,15.27
2023-01-04T10:14:02.609Z,15.52
2023-01-04T10:17:35.636Z,15.20
2023-01-04T10:23:29.535Z,15.20
2023-01-04T10:26:02.901Z,15.41
2023-01-04T10:28:51.143Z,14.88
2023-01-04T10:31:40.280Z,15.16
2023-01-04T10:34:28.478Z,16.84
2023-01-04T10:37:13.931Z,16.69
2023-01-04T10:39:41.875Z,15.75
2023-01-04T10:42:31.015Z,15.88
2023-01-04T10:45:18.069Z,15.96
2023-01-04T10:48:07.738Z,15.86
2023-01-04T10:50:47.900Z,15.56
2023-01-04T10:53:27.305Z,15.59
2023-01-04T10:56:24.515Z,15.62
2023-01-04T10:59:18.695Z,15.76
2023-01-04T11:01:57.500Z,15.14
2023-01-04T11:04:30.181Z,15.25
2023-01-04T11:07:07.717Z,15.18
2023-01-04T11:09:44.511Z,15.44
2023-01-04T11:12:17.173Z,14.90
2023-01-04T11:14:43.696Z,14.94
2023-01-04T11:17:12.197Z,15.21
2023-01-04T11:19:39.743Z,14.94
2023-01-04T11:22:12.270Z,15.31
2023-01-04T11:25:00.353Z,15.21
2023-01-04T11:27:32.553Z,15.59
2023-01-04T11:30:11.485Z,15.74
2023-01-04T11:33:17.044Z,15.63
2023-01-04T11:35:48.321Z,15.07
2023-01-04T11:38:22.284Z,15.02
2023-01-04T11:40:58.021Z,15.05
2023-01-04T11:43:26.696Z,15.66
2023-01-04T11:46:00.228Z,15.97
2023-01-04T11:48:47.005Z,15.93
2023-01-04T11:51:34.365Z,15.63
2023-01-04T11:54:19.747Z,15.89
2023-01-04T11:57:11.993Z,16.13
2023-01-04T11:59:39.001Z,16.56
2023-01-04T12:02:35.146Z,16.05
2023-01-04T12:05:21.244Z,15.99
2023-01-04T12:07:52.991Z,16.32
2023-01-04T12:10:26.536Z,16.40
2023-01-04T12:12:59.439Z,16.29
2023-01-04T12:16:08.345Z,16.56
2023-01-04T12:18:42.520Z,16.32
2023-01-04T12:21:24.352Z,16.44
2023-01-04T12:23:52.557Z,16.23
2023-01-04T12:26:20.466Z,16.41
2023-01-04T12:28:53.646Z,16.44
2023-01-04T12:31:21.098Z,16.09
2023-01-04T12:33:55.218Z,16.47
2023-01-04T12:36:43.063Z,15.73
2023-01-04T12:39:12.999Z,16.56
2023-01-04T12:41:39.465Z,16.51
2023-01-04T12:44:46.852Z,15.66
2023-01-04T12:47:38.115Z,16.07
2023-01-04T12:50:10.898Z,16.93
2023-01-04T12:53:10.716Z,16.67
2023-01-04T12:55:41.958Z,16.69
2023-01-04T12:58:51.141Z,17.01
2023-01-04T13:01:29.067Z,16.36
2023-01-04T13:04:05.933Z,16.54
2023-01-04T13:06:41.568Z,16.72
2023-01-04T13:09:25.010Z,16.55
2023-01-04T13:12:26.029Z,16.08
2023-01-04T13:15:02.610Z,16.43
2023-01-04T13:17:37.592Z,16.00
2023-01-04T13:20:20.293Z,16.34
2023-01-04T13:22:53.428Z,16.91
2023-01-04T13:25:23.091Z,17.31
2023-01-04T13:28:01.976Z,17.63
2023-01-04T13:30:29.344Z,17.16
2023-01-04T13:33:25.079Z,17.00
2023-01-04T13:35:42.626Z,16.56
2023-01-04T13:38:15.663Z,15.93
2023-01-04T13:40:49.362Z,16.54
2023-01-04T13:43:16.224Z,16.56
2023-01-04T13:46:19.154Z,16.36
2023-01-04T13:48:49.148Z,16.03
2023-01-04T13:51:33.930Z,16.09
2023-01-04T13:54:06.335Z,16.44
2023-01-04T13:56:34.726Z,15.94
2023-01-04T13:59:01.932Z,16.18
2023-01-04T14:01:35.665Z,16.05
2023-01-04T14:04:03.795Z,16.29
2023-01-04T14:06:41.307Z,16.22
2023-01-04T14:09:10.825Z,16.59
2023-01-04T14:12:04.070Z,16.61
2023-01-04T14:14:38.687Z,16.60
2023-01-04T14:17:12.642Z,16.82
2023-01-04T14:19:45.443Z,16.45
2023-01-04T14:22:42.628Z,16.37
2023-01-04T14:25:30.939Z,16.37
2023-01-04T14:28:19.460Z,16.33
2023-01-04T14:30:48.370Z,16.64
2023-01-04T14:33:26.315Z,16.21
2023-01-04T14:36:04.187Z,16.68
2023-01-04T14:38:35.021Z,16.68
2023-01-04T14:41:26.231Z,16.29
2023-01-04T14:44:03.530Z,16.29
2023-01-04T14:46:32.012Z,16.21
2023-01-04T14:48:59.257Z,16.19
2023-01-04T14:51:34.821Z,15.91
2023-01-04T14:54:01.448Z,15.79
2023-01-04T14:56:27.995Z,15.76
2023-01-04T14:58:54.617Z,15.99
2023-01-04T15:01:21.262Z,16.48
2023-01-04T15:03:47.989Z,15.93
2023-01-04T15:06:14.595Z,15.43
2023-01-04T15:08:41.197Z,16.15
2023-01-04T15:11:09.888Z,16.30
2023-01-04T15:13:39.735Z,15.58
2023-01-04T15:16:09.847Z,15.80
2023-01-04T15:18:36.468Z,15.46
2023-01-04T15:21:03.989Z,15.68
2023-01-04T15:23:30.564Z,16.05
2023-01-04T15:25:57.171Z,15.44
2023-01-04T15:28:25.997Z,15.86
2023-01-04T15:30:52.622Z,15.86
2023-01-04T15:33:19.350Z,15.81
2023-01-04T15:35:46.651Z,15.72
2023-01-04T15:38:18.357Z,16.14
2023-01-04T15:40:45.297Z,16.27
2023-01-04T15:43:11.917Z,16.42
2023-01-04T15:45:39.561Z,15.63
2023-01-04T15:48:07.908Z,15.35
2023-01-04T15:50:36.425Z,15.80
2023-01-04T15:53:03.130Z,15.28
2023-01-04T15:55:34.133Z,15.79
2023-01-04T15:58:03.091Z,15.44
2023-01-04T16:00:29.694Z,14.84
2023-01-04T16:02:56.881Z,15.60
2023-01-04T16:05:23.495Z,15.30
2023-01-04T16:07:50.080Z,15.47
2023-01-04T16:10:16.823Z,14.70
2023-01-04T16:12:44.245Z,14.84
2023-01-04T16:15:19.205Z,14.89
2023-01-04T16:17:45.743Z,14.56
2023-01-04T16:20:14.944Z,15.59
2023-01-04T16:22:42.261Z,15.15
2023-01-04T16:25:11.227Z,15.27
2023-01-04T16:27:39.302Z,14.79
2023-01-04T16:30:13.966Z,14.70
2023-01-04T16:32:43.899Z,14.99
2023-01-04T16:35:11.412Z,14.54
2023-01-04T16:37:38.057Z,14.66
2023-01-04T16:40:06.831Z,14.58
2023-01-04T16:42:35.241Z,14.97
2023-01-04T16:45:01.937Z,14.89
2023-01-04T16:47:28.559Z,14.58
2023-01-04T16:49:55.262Z,14.89
2023-01-04T16:52:21.922Z,14.63
2023-01-04T16:54:49.237Z,15.21
2023-01-04T16:57:15.866Z,15.28
2023-01-04T16:59:42.892Z,15.11
2023-01-04T17:02:12.001Z,14.56
2023-01-04T17:04:38.775Z,14.94
2023-01-04T17:07:05.981Z,15.01
2023-01-04T17:09:32.567Z,14.68
2023-01-04T17:12:45.099Z,14.99
2023-01-04T17:15:07.819Z,15.15
2023-01-04T17:17:37.244Z,14.26
2023-01-04T17:20:04.485Z,14.74
2023-01-04T17:22:34.517Z,15.36
2023-01-04T17:25:01.519Z,14.70
2023-01-04T17:27:28.050Z,14.95
2023-01-04T17:29:54.629Z,14.95
2023-01-04T17:32:21.210Z,14.68
2023-01-04T17:34:49.590Z,14.78
2023-01-04T17:37:16.135Z,15.19
2023-01-04T17:39:42.750Z,14.70
2023-01-04T17:42:09.313Z,14.51
2023-01-04T17:44:35.831Z,14.75
2023-01-04T17:47:02.404Z,15.17
2023-01-04T17:49:32.130Z,14.49
2023-01-04T17:51:59.159Z,15.19
2023-01-04T17:54:26.805Z,14.78
2023-01-04T17:56:53.408Z,14.99
2023-01-04T17:59:20.158Z,15.38
2023-01-04T18:01:46.920Z,15.02
2023-01-04T18:04:13.526Z,14.76
2023-01-04T18:06:40.190Z,14.93
2023-01-04T18:09:07.826Z,14.72
2023-01-04T18:11:35.326Z,14.60
2023-01-04T18:14:05.767Z,15.21
2023-01-04T18:16:55.905Z,14.21
2023-01-04T18:19:24.602Z,15.00
2023-01-04T18:21:51.175Z,15.07
2023-01-04T18:29:52.785Z,14.80
2023-01-04T18:32:20.022Z,15.09
2023-01-04T18:34:46.599Z,14.47
2023-01-04T18:37:13.757Z,14.82
2023-01-04T18:39:40.397Z,14.38
2023-01-04T18:42:06.920Z,14.59
2023-01-04T18:44:34.985Z,15.32
2023-01-04T18:47:03.173Z,15.11
2023-01-04T18:49:29.752Z,14.86
2023-01-04T18:51:56.280Z,15.26
2023-01-04T18:54:22.924Z,15.66
2023-01-04T18:56:49.526Z,14.52
2023-01-04T18:59:18.970Z,14.85
2023-01-04T19:01:45.967Z,14.36
2023-01-04T19:04:16.014Z,14.58
2023-01-04T19:06:42.923Z,14.69
2023-01-04T19:09:09.529Z,14.59
2023-01-04T19:11:36.175Z,14.59
2023-01-04T19:14:04.004Z,14.17
2023-01-04T19:16:31.566Z,14.84
2023-01-04T19:19:01.793Z,15.09
2023-01-04T19:21:29.117Z,14.65
2023-01-04T19:23:56.322Z,14.98
2023-01-04T19:26:24.033Z,14.47
2023-01-04T19:28:51.393Z,14.59
2023-01-04T19:31:20.243Z,14.12
2023-01-04T19:33:47.722Z,15.19
2023-01-04T19:36:16.989Z,14.57
2023-01-04T19:38:43.510Z,15.11
2023-01-04T19:41:16.079Z,14.33
2023-01-04T19:43:42.970Z,14.12
2023-01-04T19:46:11.650Z,14.92
2023-01-04T19:48:39.026Z,14.95
2023-01-04T19:51:14.981Z,15.33
2023-01-04T19:53:42.995Z,14.80
2023-01-04T19:56:10.666Z,15.00
2023-01-04T19:58:38.193Z,14.95
2023-01-04T20:01:06.040Z,15.29
2023-01-04T20:03:33.166Z,15.31
2023-01-04T20:06:05.117Z,15.25
2023-01-04T20:08:32.127Z,14.78
2023-01-04T20:11:00.779Z,15.21
2023-01-04T20:13:29.537Z,14.59
2023-01-04T20:15:56.284Z,15.24
2023-01-04T20:18:25.843Z,15.55
2023-01-04T20:20:52.942Z,15.58
2023-01-04T20:23:21.591Z,15.61
2023-01-04T20:25:50.148Z,15.79
2023-01-04T20:28:18.010Z,15.52
2023-01-04T20:30:44.615Z,16.02
2023-01-04T20:33:11.364Z,16.13
2023-01-04T20:35:41.901Z,15.83
2023-01-04T20:38:09.871Z,16.00
2023-01-04T20:40:38.474Z,15.73
2023-01-04T20:43:23.567Z,15.66
2023-01-04T20:45:50.178Z,15.86
2023-01-04T20:48:16.994Z,15.74
2023-01-04T20:50:43.629Z,15.89
2023-01-04T20:53:11.388Z,15.84
2023-01-04T20:55:42.414Z,16.00
2023-01-04T20:58:16.005Z,15.15
2023-01-04T21:00:43.754Z,15.91
2023-01-04T21:03:11.212Z,15.86
2023-01-04T21:05:46.835Z,16.37
2023-01-04T21:08:13.710Z,16.45
2023-01-04T21:10:43.135Z,16.27
2023-01-04T21:13:11.594Z,15.85
2023-01-04T21:15:39.129Z,16.35
2023-01-04T21:18:06.321Z,16.08
2023-01-04T21:20:33.318Z,15.44
2023-01-04T21:23:00.316Z,16.55
2023-01-04T21:25:26.913Z,16.27
2023-01-04T21:27:53.631Z,16.11
2023-01-04T21:30:21.128Z,15.65
2023-01-04T21:32:47.811Z,16.14
2023-01-04T21:35:14.407Z,16.01
2023-01-04T21:37:40.977Z,15.78
2023-01-04T21:40:07.958Z,15.71
2023-01-04T21:42:34.486Z,15.60
2023-01-04T21:45:01.039Z,15.56
2023-01-04T21:47:31.082Z,15.45
2023-01-04T21:49:57.829Z,15.76
2023-01-04T21:52:24.529Z,15.87
2023-01-04T21:54:51.130Z,15.21
2023-01-04T21:57:17.711Z,15.46
2023-01-04T21:59:44.202Z,14.84
2023-01-04T22:02:18.997Z,14.97
2023-01-04T22:04:46.272Z,14.86
2023-01-04T22:07:12.830Z,15.00
2023-01-04T22:09:39.553Z,15.00
2023-01-04T22:12:06.582Z,15.16
2023-01-04T22:14:33.504Z,15.20
2023-01-04T22:17:00.159Z,14.78
2023-01-04T22:19:27.275Z,14.40
2023-01-04T22:21:53.797Z,14.54
2023-01-04T22:24:20.409Z,14.35
2023-01-04T22:26:49.162Z,14.79
2023-01-04T22:29:16.025Z,14.50
2023-01-04T22:31:42.781Z,14.63
2023-01-04T22:34:09.409Z,14.67
2023-01-04T22:36:35.941Z,13.86
2023-01-04T22:39:02.483Z,13.77
2023-01-04T22:41:29.917Z,13.86
2023-01-04T22:44:03.237Z,14.12
2023-01-04T22:46:30.910Z,13.92
2023-01-04T22:48:58.794Z,13.83
2023-01-04T22:51:27.624Z,14.35
2023-01-04T22:53:59.578Z,13.60
2023-01-04T22:56:27.526Z,14.14
2023-01-04T22:58:55.876Z,14.27
2023-01-04T23:01:31.092Z,13.75
2023-01-04T23:04:00.219Z,14.23
2023-01-04T23:06:28.374Z,13.54
2023-01-04T23:09:07.760Z,14.15
2023-01-04T23:11:35.982Z,13.68
2023-01-04T23:14:04.341Z,13.31
2023-01-04T23:16:33.171Z,14.20
2023-01-04T23:19:01.569Z,14.20
2023-01-04T23:21:28.444Z,13.99
2023-01-04T23:23:54.998Z,14.04
2023-01-04T23:26:23.226Z,13.97
2023-01-04T23:28:50.690Z,14.79
2023-01-04T23:31:20.455Z,14.48
2023-01-04T23:33:52.404Z,14.82
2023-01-04T23:36:24.189Z,14.52
2023-01-04T23:38:53.783Z,14.79
2023-01-04T23:41:20.973Z,15.07
2023-01-04T23:43:47.804Z,14.18
2023-01-04T23:46:17.036Z,14.63
2023-01-04T23:48:44.401Z,14.65
2023-01-04T23:51:12.966Z,15.07
2023-01-04T23:53:39.800Z,15.03
2023-01-04T23:56:11.679Z,15.11
2023-01-04T23:58:38.236Z,14.98
